Time;durP1;ratioP1;P1;durP2;ratioP2;P2;SDS_P1;SDS_P2;PMS_P1;PMS_P2;Temp;Humidity;BMP_temperature;BMP_pressure;BME280_temperature;BME280_humidity;BME280_pressure;Samples;Min_cycle;Max_cycle;Signal;HPM_P1;HPM_P2
2022/04/21 00:01:12;;;;;;;4.63;0.70;;;;;;;19.43;29.16;101215.31;16133706;19;129806;-58
2022/04/21 00:06:34;;;;;;;0.90;0.70;;;;;;;19.42;28.98;101221.09;16132095;19;129261;-58
2022/04/21 00:11:56;;;;;;;0.60;0.50;;;;;;;19.40;28.84;101215.78;16130033;19;129135;-58
2022/04/21 00:17:18;;;;;;;0.65;0.50;;;;;;;19.39;28.90;101214.09;16131295;19;130331;-58
2022/04/21 00:28:20;;;;;;;0.85;0.52;;;;;;;19.36;28.89;101200.75;16143438;19;130182;-59
2022/04/21 00:33:42;;;;;;;1.15;0.45;;;;;;;19.32;28.78;101200.34;16146762;19;128803;-58
2022/04/21 00:39:04;;;;;;;0.40;0.40;;;;;;;19.33;29.13;101201.22;16147182;19;129980;-59
2022/04/21 00:44:26;;;;;;;1.63;0.77;;;;;;;19.30;29.05;101201.69;16146801;19;129249;-58
2022/04/21 00:49:48;;;;;;;1.70;0.43;;;;;;;19.29;28.74;101200.00;16141476;19;129279;-58
2022/04/21 00:55:10;;;;;;;1.48;0.65;;;;;;;19.28;29.03;101204.72;16143901;19;129866;-58
2022/04/21 01:00:32;;;;;;;1.02;0.70;;;;;;;19.27;29.09;101207.72;16145387;19;129935;-58
2022/04/21 01:05:55;;;;;;;0.98;0.50;;;;;;;19.24;29.08;101206.28;16145190;19;129776;-58
2022/04/21 01:11:17;;;;;;;0.60;0.32;;;;;;;19.22;28.78;101208.47;16139850;19;129626;-58
2022/04/21 01:16:38;;;;;;;2.00;0.50;;;;;;;19.21;29.14;101206.78;16144280;19;130327;-58
2022/04/21 01:22:01;;;;;;;1.13;0.57;;;;;;;19.19;29.01;101200.63;16143295;19;129479;-62
2022/04/21 01:27:27;;;;;;;0.82;0.60;;;;;;;19.18;29.14;101205.31;16140804;19;129798;-59
2022/04/21 01:32:49;;;;;;;0.77;0.63;;;;;;;19.19;28.86;101197.84;16142093;19;130162;-56
2022/04/21 01:43:52;;;;;;;1.23;0.60;;;;;;;19.16;29.06;101195.56;16140912;19;129166;-59
2022/04/21 01:49:13;;;;;;;0.98;0.63;;;;;;;19.14;29.31;101194.94;16136728;19;129450;-58
2022/04/21 01:54:35;;;;;;;1.02;0.60;;;;;;;19.12;28.91;101192.44;16137453;19;129565;-59
2022/04/21 01:59:57;;;;;;;2.13;0.68;;;;;;;19.12;28.96;101188.78;16139011;19;129818;-58
2022/04/21 02:05:19;;;;;;;1.58;0.68;;;;;;;19.11;29.00;101178.78;16140452;19;129558;-58
2022/04/21 02:10:41;;;;;;;1.45;0.68;;;;;;;19.08;28.93;101178.19;16132532;19;129612;-58
2022/04/21 02:16:03;;;;;;;4.57;0.70;;;;;;;19.07;28.91;101176.53;16138929;19;129147;-58
2022/04/21 02:21:25;;;;;;;0.85;0.52;;;;;;;19.06;29.07;101174.84;16140138;19;130185;-58
2022/04/21 02:26:47;;;;;;;2.92;0.70;;;;;;;19.05;28.94;101189.78;16138042;19;130476;-58
2022/04/21 02:32:08;;;;;;;1.13;0.60;;;;;;;19.04;28.92;101185.31;16139275;19;129791;-58
2022/04/21 02:37:41;;;;;;;2.65;0.50;;;;;;;19.04;29.08;101179.78;16137480;19;129893;-58
2022/04/21 02:43:03;;;;;;;2.95;0.63;;;;;;;19.02;29.15;101184.72;16137691;19;129424;-58
2022/04/21 02:48:24;;;;;;;1.42;0.60;;;;;;;19.00;29.10;101178.56;16130133;19;130820;-58
2022/04/21 02:59:28;;;;;;;0.85;0.52;;;;;;;18.98;28.97;101183.50;16134520;19;130143;-58
2022/04/21 03:04:52;;;;;;;2.35;0.68;;;;;;;18.96;29.11;101180.13;16135670;19;129548;-58
2022/04/21 03:10:14;;;;;;;0.80;0.65;;;;;;;18.96;28.99;101191.22;16123387;19;130585;-58
2022/04/21 03:15:36;;;;;;;1.33;0.70;;;;;;;18.94;29.32;101181.47;16134024;19;129141;-58
2022/04/21 03:26:40;;;;;;;1.55;0.80;;;;;;;18.90;29.31;101186.66;16134912;19;128957;-58
2022/04/21 03:32:01;;;;;;;1.75;0.95;;;;;;;18.89;29.28;101180.25;16134878;19;129568;-59
2022/04/21 03:37:23;;;;;;;1.50;0.80;;;;;;;18.87;29.01;101193.53;16134576;19;129666;-58
2022/04/21 03:42:46;;;;;;;4.43;1.05;;;;;;;18.88;28.96;101188.81;16134768;19;129887;-59
2022/04/21 03:48:07;;;;;;;2.25;0.70;;;;;;;18.85;29.00;101184.59;16131121;19;130945;-58
2022/04/21 03:53:30;;;;;;;2.67;1.25;;;;;;;18.84;29.12;101184.84;16135898;19;129818;-58
2022/04/21 03:58:52;;;;;;;2.22;0.90;;;;;;;18.84;29.02;101190.38;16141732;19;130415;-58
2022/04/21 04:04:14;;;;;;;1.38;0.80;;;;;;;18.83;28.88;101185.94;16162970;19;130656;-58
2022/04/21 04:15:15;;;;;;;2.33;1.17;;;;;;;18.79;29.38;101181.97;16146544;19;129564;-58
2022/04/21 04:20:37;;;;;;;1.58;0.70;;;;;;;18.77;29.36;101183.03;16147239;19;129876;-58
2022/04/21 04:25:59;;;;;;;1.55;0.80;;;;;;;18.75;29.24;101185.22;16141561;19;128982;-58
2022/04/21 04:31:20;;;;;;;3.35;1.08;;;;;;;18.75;29.12;101176.88;16141588;19;129851;-59
2022/04/21 04:36:43;;;;;;;1.60;1.00;;;;;;;18.74;29.18;101183.50;16146701;19;130651;-58
2022/04/21 04:42:18;;;;;;;1.10;1.00;;;;;;;18.74;29.00;101191.81;16146496;19;128968;-58
2022/04/21 04:47:40;;;;;;;2.25;1.13;;;;;;;18.71;29.27;101186.75;16142644;19;129669;-59
2022/04/21 04:53:02;;;;;;;2.38;1.17;;;;;;;18.71;28.89;101188.69;16145738;19;129597;-59
2022/04/21 04:58:24;;;;;;;1.38;0.93;;;;;;;18.69;28.83;101190.88;16145039;19;129821;-59
2022/04/21 05:03:45;;;;;;;3.20;0.93;;;;;;;18.68;29.35;101184.50;16140075;19;130547;-59
2022/04/21 05:09:09;;;;;;;1.92;1.13;;;;;;;18.68;28.98;101192.81;16138002;19;129496;-59
2022/04/21 05:14:31;;;;;;;1.98;1.17;;;;;;;18.67;28.98;101191.13;16141581;19;129404;-59
2022/04/21 05:19:53;;;;;;;1.52;1.10;;;;;;;18.67;28.99;101190.25;16144300;19;130280;-59
2022/04/21 05:25:15;;;;;;;2.88;0.90;;;;;;;18.66;29.23;101203.28;16142590;19;128995;-58
2022/04/21 05:30:56;;;;;;;10.05;1.38;;;;;;;18.69;29.10;101196.41;16138415;19;130623;-59
2022/04/21 05:36:18;;;;;;;4.07;1.00;;;;;;;18.78;29.02;101197.72;16142457;19;129387;-55
2022/04/21 05:41:40;;;;;;;4.88;1.20;;;;;;;18.85;29.28;101200.38;16139768;19;129499;-55
2022/04/21 05:47:02;;;;;;;3.63;1.13;;;;;;;18.92;28.87;101203.91;16141089;19;129135;-55
2022/04/21 05:52:28;;;;;;;3.15;0.90;;;;;;;19.00;29.05;101209.06;16141392;19;129384;-57
2022/04/21 05:57:49;;;;;;;4.10;1.10;;;;;;;19.05;29.12;101192.56;16139870;19;130223;-57
2022/04/21 06:03:11;;;;;;;2.63;1.08;;;;;;;19.12;29.04;101200.75;16142726;19;129536;-57
2022/04/21 06:08:33;;;;;;;3.88;1.65;;;;;;;19.18;29.05;101194.22;16140020;19;129844;-56
2022/04/21 06:13:55;;;;;;;3.55;0.93;;;;;;;19.27;28.58;101202.19;16137520;19;129191;-56
2022/04/21 06:19:17;;;;;;;3.28;0.98;;;;;;;19.33;28.52;101192.91;16140771;19;129688;-56
2022/04/21 06:24:38;;;;;;;1.85;0.90;;;;;;;19.40;28.80;101199.13;16142562;19;130655;-56
2022/04/21 06:30:00;;;;;;;2.15;0.82;;;;;;;19.44;28.55;101193.97;16137593;19;129584;-55
2022/04/21 06:35:22;;;;;;;3.85;1.02;;;;;;;19.48;28.54;101198.78;16142668;19;129790;-52
2022/04/21 06:40:44;;;;;;;1.52;0.70;;;;;;;19.52;28.79;101190.78;16141462;19;129281;-52
2022/04/21 06:51:46;;;;;;;1.92;0.73;;;;;;;19.61;28.54;101196.81;16134894;19;130179;-49
2022/04/21 06:57:07;;;;;;;3.70;1.02;;;;;;;19.65;28.69;101207.16;16140097;19;129107;-54
2022/04/21 07:02:31;;;;;;;3.63;0.80;;;;;;;19.73;28.85;101202.31;16142175;19;129049;-55
2022/04/21 07:07:59;;;;;;;1.45;0.70;;;;;;;19.76;28.68;101199.88;16138698;19;129349;-50
2022/04/21 07:13:21;;;;;;;1.75;0.70;;;;;;;19.82;28.73;101198.03;16134401;19;129780;-54
2022/04/21 07:18:42;;;;;;;1.25;0.80;;;;;;;19.88;28.43;101204.56;16139296;19;130118;-56
2022/04/21 07:24:04;;;;;;;1.08;0.55;;;;;;;19.92;28.57;101192.69;16139999;19;129296;-55
2022/04/21 07:29:26;;;;;;;1.77;0.73;;;;;;;19.96;28.95;101193.88;16137622;19;129994;-50
2022/04/21 07:34:48;;;;;;;1.00;0.68;;;;;;;20.00;28.75;101194.25;16136349;19;128814;-57
2022/04/21 07:40:11;;;;;;;1.25;0.63;;;;;;;20.04;28.86;101197.38;16134169;19;129001;-55
2022/04/21 07:45:38;;;;;;;1.02;0.70;;;;;;;20.07;28.60;101188.53;16138697;19;128929;-49
2022/04/21 07:51:00;;;;;;;2.95;0.70;;;;;;;20.09;28.88;101186.34;16134811;19;129921;-52
2022/04/21 07:56:21;;;;;;;1.20;0.73;;;;;;;20.11;28.93;101173.06;16139479;19;129651;-58
2022/04/21 08:01:43;;;;;;;0.93;0.80;;;;;;;20.13;28.45;101177.25;16139560;19;129007;-55
2022/04/21 08:07:05;;;;;;;0.75;0.70;;;;;;;20.17;28.68;101179.53;16136924;19;129255;-53
2022/04/21 08:12:27;;;;;;;0.52;0.52;;;;;;;20.19;28.66;101169.88;16127923;19;130105;-56
2022/04/21 08:17:50;;;;;;;1.85;0.60;;;;;;;20.20;28.74;101168.78;16130970;19;128948;-56
2022/04/21 08:23:12;;;;;;;1.88;0.80;;;;;;;20.21;28.89;101176.00;16133299;19;129625;-56
2022/04/21 08:34:34;;;;;;;3.08;0.60;;;;;;;20.20;28.64;101167.94;16133517;19;129816;-51
2022/04/21 08:39:57;;;;;;;1.92;0.63;;;;;;;20.20;28.80;101166.00;16133440;19;128928;-55
2022/04/21 08:45:18;;;;;;;1.08;0.70;;;;;;;20.19;28.39;101167.09;16144219;19;129763;-55
2022/04/21 08:50:42;;;;;;;0.95;0.80;;;;;;;20.20;28.58;101166.00;16146314;19;129270;-57
2022/04/21 08:56:04;;;;;;;1.67;0.65;;;;;;;20.19;28.55;101169.88;16146536;19;130588;-56
2022/04/21 09:01:32;;;;;;;1.02;0.60;;;;;;;20.18;28.35;101162.66;16148510;19;130266;-51
2022/04/21 09:06:54;;;;;;;1.65;0.60;;;;;;;20.18;28.50;101150.69;16148929;19;129702;-48
2022/04/21 09:12:19;;;;;;;2.38;0.63;;;;;;;20.18;28.22;101151.53;16142222;19;129641;-48
2022/04/21 09:17:51;;;;;;;2.67;0.75;;;;;;;20.17;28.70;101154.53;16146728;19;129600;-51
2022/04/21 09:23:12;;;;;;;0.95;0.60;;;;;;;20.16;28.76;101152.84;16145236;19;129823;-48
2022/04/21 09:28:34;;;;;;;1.88;0.77;;;;;;;20.14;28.51;101155.91;16146936;19;129851;-48
2022/04/21 09:33:56;;;;;;;1.17;0.75;;;;;;;20.12;28.39;101142.25;16139373;19;129583;-51
2022/04/21 09:39:18;;;;;;;4.05;0.70;;;;;;;20.11;28.57;101140.59;16144055;19;129631;-52
2022/04/21 09:50:20;;;;;;;1.70;0.65;;;;;;;20.06;28.73;101137.72;16207599;19;128843;-54
2022/04/21 09:55:44;;;;;;;1.05;0.70;;;;;;;20.05;28.67;101135.19;16209210;19;128802;-54
2022/04/21 10:01:06;;;;;;;2.83;0.68;;;;;;;20.03;28.34;101126.28;16212094;19;128423;-56
2022/04/21 10:06:29;;;;;;;1.38;0.63;;;;;;;20.02;28.62;101121.81;16214280;19;129021;-56
2022/04/21 10:11:52;;;;;;;3.05;0.93;;;;;;;19.99;28.54;101121.22;16210368;19;128521;-56
2022/04/21 10:17:14;;;;;;;1.15;0.60;;;;;;;19.95;28.47;101108.88;16217499;19;128318;-54
2022/04/21 10:22:36;;;;;;;0.65;0.55;;;;;;;19.93;28.48;101091.66;16219636;19;129190;-54
2022/04/21 10:27:58;;;;;;;1.30;0.55;;;;;;;19.92;28.20;101092.75;16169123;19;129478;-54
2022/04/21 10:33:52;;;;;;;2.55;0.50;;;;;;;19.91;28.49;101093.84;16168113;19;129032;-56
2022/04/21 10:39:17;;;;;;;1.50;0.60;;;;;;;19.87;28.19;101083.47;16166457;19;129623;-52
2022/04/21 10:44:42;;;;;;;2.17;0.60;;;;;;;19.85;28.32;101080.94;16164709;19;129691;-55
2022/04/21 10:50:14;;;;;;;1.52;0.70;;;;;;;19.85;28.03;101080.94;16162618;19;128833;-55
2022/04/21 11:01:23;;;;;;;0.93;0.73;;;;;;;19.82;28.09;101070.31;16160994;19;129107;-53
2022/04/21 11:06:54;;;;;;;2.90;0.60;;;;;;;19.81;27.98;101063.13;16159761;19;128851;-54
2022/04/21 11:12:37;;;;;;;0.93;0.60;;;;;;;19.80;27.90;101055.88;16151734;19;129614;-56
2022/04/21 11:18:00;;;;;;;1.48;0.70;;;;;;;19.77;28.20;101039.72;16139600;19;129176;-55
2022/04/21 11:23:24;;;;;;;2.78;0.77;;;;;;;19.75;27.97;101042.75;16139092;19;129164;-54
2022/04/21 11:28:46;;;;;;;0.90;0.60;;;;;;;19.76;27.68;101038.03;16137289;19;130373;-55
2022/04/21 11:34:08;;;;;;;0.57;0.50;;;;;;;19.75;27.83;101039.13;16138486;19;129571;-53
2022/04/21 11:39:29;;;;;;;2.53;0.50;;;;;;;19.73;28.12;101032.97;16135715;19;129505;-54
2022/04/21 11:44:53;;;;;;;0.60;0.45;;;;;;;19.71;28.11;101030.47;16136386;19;129528;-54
2022/04/21 11:50:33;;;;;;;1.27;0.40;;;;;;;19.71;28.04;101012.94;16132061;19;129424;-56
2022/04/21 11:55:54;;;;;;;1.25;0.52;;;;;;;19.68;27.98;101005.97;16136273;19;129872;-57
2022/04/21 12:07:03;;;;;;;1.02;0.60;;;;;;;19.66;27.70;100989.59;16136243;19;129494;-54
2022/04/21 12:12:24;;;;;;;0.90;0.47;;;;;;;19.67;27.69;101001.53;16131241;19;129897;-55
2022/04/21 12:17:50;;;;;;;1.67;0.60;;;;;;;19.67;27.55;100995.97;16140263;19;130404;-55
2022/04/21 12:23:22;;;;;;;0.95;0.52;;;;;;;19.67;27.43;100988.50;16152297;19;129707;-56
2022/04/21 12:28:47;;;;;;;5.47;0.50;;;;;;;19.65;27.41;100982.34;16149048;19;129021;-57
2022/04/21 12:34:11;;;;;;;0.77;0.40;;;;;;;19.63;27.51;100967.88;16150048;19;129201;-54
2022/04/21 12:39:33;;;;;;;1.73;0.60;;;;;;;19.63;27.04;100967.88;16149250;19;129085;-54
2022/04/21 12:45:15;;;;;;;2.03;0.32;;;;;;;19.62;27.22;100954.28;16148080;19;129064;-55
2022/04/21 12:50:40;;;;;;;0.75;0.40;;;;;;;19.63;27.17;100961.50;16145566;19;129733;-54
2022/04/21 12:56:14;;;;;;;4.35;0.43;;;;;;;19.63;27.00;100950.41;16147660;19;129400;-56
2022/04/21 13:01:36;;;;;;;1.05;0.38;;;;;;;19.61;27.26;100941.50;16147576;19;128983;-56
2022/04/21 13:06:58;;;;;;;2.15;0.50;;;;;;;19.61;27.21;100930.38;16145523;19;130250;-54
2022/04/21 13:12:20;;;;;;;2.22;0.63;;;;;;;19.60;26.89;100914.81;16142330;19;129377;-53
2022/04/21 13:17:42;;;;;;;1.15;0.40;;;;;;;19.59;26.89;100911.19;16145054;19;129549;-56
2022/04/21 13:23:07;;;;;;;0.70;0.30;;;;;;;19.60;26.91;100918.44;16146370;19;129087;-57
2022/04/21 13:28:35;;;;;;;1.35;0.43;;;;;;;19.59;27.03;100908.41;16142326;19;129726;-53
2022/04/21 13:33:58;;;;;;;0.75;0.32;;;;;;;19.59;26.53;100902.88;16145772;19;129333;-56
2022/04/21 13:39:20;;;;;;;0.68;0.40;;;;;;;19.59;26.81;100905.66;16146177;19;129277;-51
2022/04/21 13:44:41;;;;;;;5.43;0.60;;;;;;;19.59;26.75;100883.44;16145148;19;129411;-52
2022/04/21 13:50:23;;;;;;;1.13;0.70;;;;;;;19.59;26.80;100894.53;16142158;19;130650;-52
2022/04/21 13:55:45;;;;;;;1.58;0.40;;;;;;;19.60;26.60;100899.00;16144135;19;129285;-49
2022/04/21 14:01:07;;;;;;;1.05;0.40;;;;;;;19.62;26.55;100876.56;16141411;19;129483;-55
2022/04/21 14:06:29;;;;;;;0.88;0.47;;;;;;;19.61;26.33;100867.38;16140794;19;129085;-53
2022/04/21 14:11:51;;;;;;;1.17;0.40;;;;;;;19.62;26.49;100859.91;16138016;19;129267;-53
2022/04/21 14:17:15;;;;;;;0.70;0.40;;;;;;;19.62;26.45;100854.38;16141050;19;131462;-52
2022/04/21 14:22:37;;;;;;;0.47;0.30;;;;;;;19.61;26.18;100845.19;16140686;19;129403;-51
2022/04/21 14:27:58;;;;;;;1.02;0.50;;;;;;;19.58;26.25;100848.47;16143428;19;129344;-54
2022/04/21 14:33:21;;;;;;;0.93;0.50;;;;;;;19.60;25.94;100849.06;16136229;19;129073;-54
2022/04/21 14:44:24;;;;;;;2.42;0.60;;;;;;;19.57;26.19;100840.41;16133263;19;129089;-51
2022/04/21 14:49:46;;;;;;;0.40;0.40;;;;;;;19.57;26.00;100834.84;16139251;19;130083;-52
2022/04/21 14:55:07;;;;;;;0.98;0.55;;;;;;;19.56;26.33;100838.72;16139753;19;129322;-54
2022/04/21 15:00:29;;;;;;;1.35;0.40;;;;;;;19.57;25.93;100838.44;16137534;19;129554;-54
2022/04/21 15:05:51;;;;;;;2.78;0.50;;;;;;;19.56;25.94;100828.47;16139418;19;129357;-55
2022/04/21 15:11:13;;;;;;;2.72;0.57;;;;;;;19.55;26.22;100826.78;16135055;19;129574;-53
2022/04/21 15:16:35;;;;;;;5.80;0.80;;;;;;;19.53;26.29;100827.03;16134716;19;130850;-49
2022/04/21 15:21:57;;;;;;;1.35;0.70;;;;;;;19.51;25.84;100820.88;16132244;19;129668;-53
2022/04/21 15:27:19;;;;;;;1.95;0.77;;;;;;;19.50;26.18;100824.78;16129394;19;129202;-51
2022/04/21 15:32:41;;;;;;;4.55;0.90;;;;;;;19.48;26.44;100826.97;16129580;19;129710;-55
2022/04/21 15:38:03;;;;;;;1.65;0.77;;;;;;;19.48;26.46;100815.00;16132542;19;130627;-52
2022/04/21 15:43:24;;;;;;;2.33;0.68;;;;;;;19.49;26.26;100811.16;16135930;19;128986;-52
2022/04/21 15:48:46;;;;;;;1.85;0.77;;;;;;;19.48;26.59;100810.31;16134072;19;129260;-56
2022/04/21 15:59:49;;;;;;;1.08;0.77;;;;;;;19.48;26.73;100801.16;16150158;19;131237;-55
2022/04/21 16:05:11;;;;;;;1.92;0.90;;;;;;;19.47;26.83;100803.09;16142707;19;130979;-55
2022/04/21 16:10:33;;;;;;;3.80;1.00;;;;;;;19.47;26.74;100805.88;16146711;19;130196;-51
2022/04/21 16:15:54;;;;;;;4.22;1.13;;;;;;;19.48;26.71;100806.69;16151780;19;129514;-55
2022/04/21 16:21:17;;;;;;;1.23;0.90;;;;;;;19.48;26.88;100803.91;16145369;19;129865;-53
2022/04/21 16:26:39;;;;;;;4.80;1.38;;;;;;;19.47;27.07;100805.00;16147197;19;128995;-54
2022/04/21 16:32:03;;;;;;;2.15;1.10;;;;;;;19.44;26.82;100808.31;16143371;19;129987;-55
2022/04/21 16:37:24;;;;;;;1.08;0.90;;;;;;;19.44;26.94;100811.91;16144795;19;130396;-55
2022/04/21 16:42:49;;;;;;;3.60;0.93;;;;;;;19.43;26.84;100807.47;16144380;19;129092;-55
2022/04/21 16:48:11;;;;;;;3.67;0.80;;;;;;;19.43;27.23;100809.41;16134140;19;131070;-53
2022/04/21 16:53:33;;;;;;;4.03;1.27;;;;;;;19.45;27.75;100798.88;16135145;19;129687;-52
2022/04/21 16:58:55;;;;;;;5.97;1.80;;;;;;;19.48;27.95;100807.56;16139432;19;130603;-56
2022/04/21 17:04:16;;;;;;;3.92;1.38;;;;;;;19.53;28.31;100802.06;16139334;19;129113;-55
2022/04/21 17:09:45;;;;;;;8.43;1.50;;;;;;;19.62;28.30;100809.97;16143197;19;129948;-58
2022/04/21 17:15:07;;;;;;;4.97;0.90;;;;;;;19.84;27.87;100815.50;16134753;19;130163;-55
2022/04/21 17:20:29;;;;;;;5.85;1.17;;;;;;;20.13;27.79;100809.81;16143932;19;130045;-55
2022/04/21 17:25:51;;;;;;;4.88;1.10;;;;;;;20.43;27.61;100811.28;16140688;19;129519;-56
2022/04/21 17:31:12;;;;;;;4.38;1.23;;;;;;;20.69;27.52;100811.50;16141655;19;129024;-56
2022/04/21 17:36:34;;;;;;;6.53;1.00;;;;;;;20.88;27.54;100809.22;16142278;19;129189;-57
2022/04/21 17:41:57;;;;;;;4.40;0.93;;;;;;;21.02;27.26;100815.19;16140376;19;129503;-53
2022/04/21 17:47:20;;;;;;;8.18;1.10;;;;;;;21.13;27.02;100805.81;16136327;19;129652;-54
2022/04/21 17:52:42;;;;;;;3.63;0.90;;;;;;;21.21;27.42;100808.09;16132247;19;129497;-53
2022/04/21 17:58:03;;;;;;;3.63;0.77;;;;;;;21.26;27.15;100804.50;16139005;19;129015;-54
2022/04/21 18:03:25;;;;;;;4.78;0.73;;;;;;;21.24;27.54;100806.72;16132356;19;129878;-59
2022/04/21 18:08:47;;;;;;;1.33;0.65;;;;;;;21.19;27.65;100820.59;16139214;19;129541;-54
2022/04/21 18:14:09;;;;;;;5.22;1.10;;;;;;;21.13;27.77;100816.09;16134494;19;130421;-57
2022/04/21 18:19:30;;;;;;;4.93;0.90;;;;;;;21.05;27.76;100817.41;16137692;19;129721;-61
2022/04/21 18:24:53;;;;;;;3.38;1.20;;;;;;;20.96;27.81;100821.78;16129958;19;129831;-58
2022/04/21 18:30:15;;;;;;;10.00;1.33;;;;;;;20.92;28.36;100818.69;16130765;19;132091;-59
2022/04/21 18:35:40;;;;;;;9.07;1.10;;;;;;;20.88;27.97;100817.53;16128931;19;129899;-57
2022/04/21 18:41:02;;;;;;;5.90;0.80;;;;;;;20.84;28.38;100827.53;16129420;19;129909;-57
2022/04/21 18:46:24;;;;;;;4.13;0.85;;;;;;;20.86;28.58;100817.81;16133111;19;129001;-56
2022/04/21 18:51:46;;;;;;;4.70;0.82;;;;;;;21.03;28.16;100816.88;16130205;19;130512;-56
2022/04/21 18:57:07;;;;;;;5.88;0.88;;;;;;;21.24;28.32;100825.34;16135783;19;129964;-56
2022/04/21 19:02:29;;;;;;;7.25;0.70;;;;;;;21.45;28.06;100818.81;16135634;19;130614;-58
2022/04/21 19:07:51;;;;;;;6.18;0.70;;;;;;;21.60;27.76;100820.88;16137000;19;130069;-57
2022/04/21 19:13:13;;;;;;;1.58;0.60;;;;;;;21.73;28.11;100825.16;16130864;19;129500;-56
2022/04/21 19:18:35;;;;;;;1.80;0.65;;;;;;;21.83;28.20;100827.16;16131514;19;129920;-57
2022/04/21 19:23:57;;;;;;;1.65;0.50;;;;;;;21.89;28.03;100825.25;16132657;19;130220;-55
2022/04/21 19:29:19;;;;;;;2.90;0.60;;;;;;;21.88;28.39;100820.78;16126365;19;130129;-57
2022/04/21 19:34:41;;;;;;;6.47;0.85;;;;;;;21.81;28.07;100821.03;16125780;19;129353;-56
2022/04/21 19:40:03;;;;;;;1.77;0.68;;;;;;;21.73;27.90;100825.16;16125063;19;129806;-55
2022/04/21 19:45:25;;;;;;;3.10;0.80;;;;;;;21.61;28.14;100828.13;16120511;19;129418;-55
2022/04/21 19:50:47;;;;;;;7.78;1.45;;;;;;;21.52;28.38;100824.19;16122828;19;130038;-58
2022/04/21 19:56:08;;;;;;;9.10;1.05;;;;;;;21.44;28.35;100822.72;16124854;19;130011;-56
2022/04/21 20:01:31;;;;;;;12.68;1.25;;;;;;;21.40;28.50;100829.09;16127910;19;129164;-56
2022/04/21 20:12:52;;;;;;;4.35;0.98;;;;;;;21.40;28.59;100820.72;16128705;19;131066;-57
2022/04/21 20:18:14;;;;;;;4.22;1.02;;;;;;;21.50;28.73;100816.13;16131200;19;129984;-57
2022/04/21 20:23:36;;;;;;;6.97;1.30;;;;;;;21.60;28.25;100817.28;16131100;19;130326;-57
2022/04/21 20:28:57;;;;;;;1.33;0.68;;;;;;;21.65;28.67;100811.75;16129726;19;130613;-54
2022/04/21 20:34:19;;;;;;;2.40;0.85;;;;;;;21.69;28.37;100801.72;16123671;19;129634;-55
2022/04/21 20:39:43;;;;;;;5.20;1.00;;;;;;;21.71;28.19;100804.25;16135869;19;129408;-55
2022/04/21 20:45:05;;;;;;;10.18;1.00;;;;;;;21.66;28.41;100807.88;16141833;19;129494;-57
2022/04/21 20:50:32;;;;;;;7.30;1.35;;;;;;;21.57;28.37;100798.31;16139590;19;129646;-56
2022/04/21 20:55:54;;;;;;;4.25;1.10;;;;;;;21.47;28.69;100794.34;16143311;19;129314;-54
2022/04/21 21:01:16;;;;;;;3.95;0.98;;;;;;;21.34;28.28;100784.53;16141883;19;130472;-56
2022/04/21 21:12:20;;;;;;;2.35;0.70;;;;;;;21.13;28.53;100780.78;16138698;19;129509;-54
2022/04/21 21:17:42;;;;;;;2.83;0.90;;;;;;;21.02;28.77;100784.59;16137049;19;129348;-56
2022/04/21 21:23:04;;;;;;;2.30;1.02;;;;;;;20.93;29.09;100783.38;16140095;19;130598;-54
2022/04/21 21:28:26;;;;;;;2.65;1.10;;;;;;;20.83;28.78;100784.97;16139177;19;129592;-54
2022/04/21 21:33:47;;;;;;;2.95;0.88;;;;;;;20.75;29.15;100783.50;16136659;19;130644;-56
2022/04/21 21:39:10;;;;;;;2.55;0.98;;;;;;;20.68;29.12;100788.44;16140709;19;129551;-57
2022/04/21 21:44:31;;;;;;;1.55;0.93;;;;;;;20.60;29.01;100781.41;16139338;19;130805;-55
2022/04/21 21:55:34;;;;;;;2.35;1.00;;;;;;;20.49;29.12;100785.19;16132971;19;129569;-54
2022/04/21 22:00:55;;;;;;;3.22;1.00;;;;;;;20.45;29.13;100772.91;16139648;19;130450;-56
2022/04/21 22:06:17;;;;;;;4.72;1.20;;;;;;;20.40;29.01;100776.50;16138431;19;129590;-57
2022/04/21 22:11:39;;;;;;;1.42;0.88;;;;;;;20.37;29.35;100782.56;16136416;19;129763;-54
2022/04/21 22:17:04;;;;;;;2.58;0.93;;;;;;;20.33;28.96;100780.56;16136502;19;129365;-55
2022/04/21 22:22:26;;;;;;;1.70;1.00;;;;;;;20.32;28.96;100773.34;16134254;19;130292;-57
2022/04/21 22:27:48;;;;;;;1.17;0.80;;;;;;;20.26;29.12;100764.97;16134389;19;129373;-51
2022/04/21 22:33:10;;;;;;;1.38;0.85;;;;;;;20.24;29.30;100769.94;16126618;19;129681;-56
2022/04/21 22:38:31;;;;;;;2.50;0.80;;;;;;;20.21;28.89;100770.44;16125842;19;129819;-56
2022/04/21 22:43:53;;;;;;;2.95;0.70;;;;;;;20.20;29.23;100770.72;16133125;19;129631;-55
2022/04/21 22:49:16;;;;;;;2.40;1.05;;;;;;;20.17;29.31;100763.75;16136879;19;129577;-53
2022/04/21 22:54:39;;;;;;;4.00;0.90;;;;;;;20.12;28.91;100764.50;16132281;19;129459;-54
2022/04/21 23:00:02;;;;;;;2.40;0.80;;;;;;;20.11;29.28;100757.31;16134110;19;129748;-55
2022/04/21 23:05:24;;;;;;;2.00;0.80;;;;;;;20.08;29.13;100765.31;16135329;19;129570;-56
2022/04/21 23:16:26;;;;;;;1.17;0.60;;;;;;;20.04;29.44;100765.00;16128544;19;129506;-54
2022/04/21 23:21:49;;;;;;;1.80;0.90;;;;;;;20.01;29.38;100762.72;16134421;19;132249;-56
2022/04/21 23:27:13;;;;;;;1.15;0.80;;;;;;;19.99;29.17;100759.34;16135056;19;129537;-55
2022/04/21 23:32:34;;;;;;;1.02;0.60;;;;;;;19.95;29.13;100755.41;16133846;19;129435;-56
2022/04/21 23:43:36;;;;;;;3.15;0.77;;;;;;;19.92;29.21;100754.00;16133202;19;129847;-55
2022/04/21 23:48:58;;;;;;;2.80;0.80;;;;;;;19.89;29.27;100743.41;16132537;19;129491;-57
2022/04/21 23:54:19;;;;;;;1.73;1.00;;;;;;;19.87;29.44;100742.81;16124929;19;129359;-55
2022/04/21 23:59:41;;;;;;;2.05;0.70;;;;;;;19.84;29.44;100741.41;16132187;19;128978;-56
